Huvudsida
METAR-TAF:

METAR-TAF

Flygplatser :

Sørkjosens flygplats

Sørkjosen, Norge

latitud: 69-47N, longitud: 020-58E, höjd: 0 m

Aktuellt väderrapport

Denna rapport gjordes för 39 minuter sedan, klockan 09:20 UTC
Vind 16 kt från syd/sydost
Temperatur -2°C
Fuktighet 80%
Tryck 997 hPa
Sikt 10 km eller mer
Få moln på en höjd av 3000 ft
Spridda moln på en höjd av 4000 ft
Brutna moln på en höjd av 8000 ft
skurar i närheten

METAR: ENSR 200920Z 15016KT 9999 VCSH FEW030 SCT040 BKN080 M02/M05 Q0997 RMK WIND 1119FT 13012KT

Tid: 10:59 (09:59 UTC)


TAF: saknas

Aktuella väderrapporter och prognoser från 4000 flygplatser (METAR- och TAF-rapporter).

De tillgängliga stationerna syns som gula och röda prickar på kartan.

För musen över prickarna för att se namnen på stationerna.

Klicka sedan för att få väderrapporter och prognoser.

För att ändra kartan: Klicka på de gröna knapparna med ett svart kors på för att zooma in; den gröna knappen med ett streck på för att zooma ut; eller på de gröna pilarna för angränsande kartor.


METAR-TAF: